Time;durP1;ratioP1;P1;durP2;ratioP2;P2;SDS_P1;SDS_P2;PMS_P1;PMS_P2;Temp;Humidity;BMP_temperature;BMP_pressure;BME280_temperature;BME280_humidity;BME280_pressure;Samples;Min_cycle;Max_cycle;Signal;HPM_P1;HPM_P2
2023/06/16 00:00:12;;;;;;;10.45;4.10;;;;;;;;;;5033933;28;20498;-77
2023/06/16 00:02:41;;;;;;;7.15;4.45;;;;;;;;;;5044890;28;20103;-78
2023/06/16 00:05:12;;;;;;;8.90;4.35;;;;;;;;;;5044282;28;20045;-78
2023/06/16 00:07:39;;;;;;;6.65;3.95;;;;;;;;;;5035548;28;20067;-78
2023/06/16 00:10:06;;;;;;;8.40;3.97;;;;;;;;;;5034148;28;20144;-78
2023/06/16 00:12:34;;;;;;;8.35;3.95;;;;;;;;;;5036298;28;20182;-79
2023/06/16 00:15:01;;;;;;;8.20;3.80;;;;;;;;;;5035770;28;20045;-78
2023/06/16 00:17:28;;;;;;;10.45;4.30;;;;;;;;;;5038953;28;20049;-78
2023/06/16 00:19:57;;;;;;;8.50;3.75;;;;;;;;;;5038250;28;20079;-78
2023/06/16 00:22:25;;;;;;;7.60;3.90;;;;;;;;;;5036951;28;20064;-78
2023/06/16 00:24:52;;;;;;;6.50;4.10;;;;;;;;;;5036474;28;20474;-78
2023/06/16 00:27:25;;;;;;;9.35;3.80;;;;;;;;;;5038255;28;20068;-78
2023/06/16 00:29:52;;;;;;;11.32;4.32;;;;;;;;;;5036749;28;20042;-78
2023/06/16 00:32:19;;;;;;;11.00;3.90;;;;;;;;;;5038418;28;20494;-78
2023/06/16 00:34:45;;;;;;;8.32;3.85;;;;;;;;;;5036174;28;20441;-78
2023/06/16 00:37:12;;;;;;;11.55;4.40;;;;;;;;;;5036476;28;20045;-79
2023/06/16 00:39:38;;;;;;;8.25;4.03;;;;;;;;;;5029890;28;20249;-79
2023/06/16 00:42:05;;;;;;;6.35;3.80;;;;;;;;;;5036834;28;20046;-79
2023/06/16 00:44:32;;;;;;;8.57;3.95;;;;;;;;;;5034338;28;20041;-78
2023/06/16 00:46:59;;;;;;;8.85;4.45;;;;;;;;;;5036539;28;20084;-78
2023/06/16 00:49:26;;;;;;;7.22;4.22;;;;;;;;;;5033495;28;20045;-78
2023/06/16 00:51:53;;;;;;;15.57;4.47;;;;;;;;;;5043458;28;20064;-78
2023/06/16 00:54:20;;;;;;;10.95;4.53;;;;;;;;;;5035845;28;20504;-78
2023/06/16 00:56:47;;;;;;;8.98;4.50;;;;;;;;;;5034050;28;20460;-78
2023/06/16 00:59:14;;;;;;;8.68;4.68;;;;;;;;;;5035055;28;20049;-79
2023/06/16 01:01:41;;;;;;;8.32;5.00;;;;;;;;;;5037236;28;20056;-78
2023/06/16 01:04:09;;;;;;;8.10;4.45;;;;;;;;;;5034889;28;20037;-78
2023/06/16 01:06:36;;;;;;;8.98;4.82;;;;;;;;;;5037218;28;20052;-78
2023/06/16 01:09:09;;;;;;;9.38;4.72;;;;;;;;;;5035100;28;20100;-78
2023/06/16 01:11:35;;;;;;;11.18;4.85;;;;;;;;;;5035475;28;20053;-78
2023/06/16 01:14:16;;;;;;;6.80;4.25;;;;;;;;;;5036894;28;20076;-78
2023/06/16 01:16:44;;;;;;;14.20;5.10;;;;;;;;;;5037568;28;20045;-78
2023/06/16 01:19:17;;;;;;;9.43;4.82;;;;;;;;;;5034704;28;20056;-78
2023/06/16 01:21:50;;;;;;;9.48;4.75;;;;;;;;;;5016538;28;20049;-79
2023/06/16 01:24:18;;;;;;;13.63;5.30;;;;;;;;;;5035975;28;20528;-78
2023/06/16 01:26:49;;;;;;;11.85;4.72;;;;;;;;;;5033832;28;20045;-78
2023/06/16 01:29:17;;;;;;;12.30;4.55;;;;;;;;;;5040594;28;20144;-78
2023/06/16 01:31:46;;;;;;;11.60;5.35;;;;;;;;;;5032385;28;20045;-78
2023/06/16 01:34:13;;;;;;;9.93;4.85;;;;;;;;;;5036056;28;20156;-78
2023/06/16 01:36:41;;;;;;;14.07;4.97;;;;;;;;;;5036231;28;20072;-78
2023/06/16 01:39:08;;;;;;;8.82;4.85;;;;;;;;;;5033965;28;20065;-78
2023/06/16 01:41:36;;;;;;;7.93;4.65;;;;;;;;;;5034845;28;20069;-78
2023/06/16 01:44:04;;;;;;;10.85;4.97;;;;;;;;;;5037219;28;20073;-78
2023/06/16 01:46:31;;;;;;;10.57;5.35;;;;;;;;;;5036877;28;20072;-78
2023/06/16 01:48:58;;;;;;;9.30;4.95;;;;;;;;;;5035401;28;20049;-78
2023/06/16 01:51:24;;;;;;;11.32;4.82;;;;;;;;;;5036124;28;20053;-78
2023/06/16 01:53:52;;;;;;;11.63;5.03;;;;;;;;;;5038381;28;20053;-79
2023/06/16 01:56:19;;;;;;;9.35;4.55;;;;;;;;;;5034896;28;20064;-78
2023/06/16 01:58:46;;;;;;;7.68;4.63;;;;;;;;;;5034369;28;20042;-78
2023/06/16 02:01:18;;;;;;;9.38;4.45;;;;;;;;;;5031749;28;20103;-77
2023/06/16 02:03:50;;;;;;;8.00;4.72;;;;;;;;;;5032455;28;20045;-78
2023/06/16 02:06:26;;;;;;;8.70;4.78;;;;;;;;;;5035190;28;20053;-77
2023/06/16 02:08:55;;;;;;;10.68;4.80;;;;;;;;;;5039201;28;20113;-78
2023/06/16 02:11:22;;;;;;;8.48;4.70;;;;;;;;;;5046343;28;20109;-79
2023/06/16 02:13:48;;;;;;;9.77;4.90;;;;;;;;;;5037115;28;20393;-79
2023/06/16 02:16:15;;;;;;;8.73;4.88;;;;;;;;;;5033939;28;20425;-78
2023/06/16 02:18:42;;;;;;;8.20;4.88;;;;;;;;;;5032477;28;20062;-79
2023/06/16 02:21:09;;;;;;;8.43;5.03;;;;;;;;;;5030159;28;20080;-80
2023/06/16 02:23:36;;;;;;;9.27;4.70;;;;;;;;;;5031274;28;20045;-78
2023/06/16 02:26:02;;;;;;;8.30;5.10;;;;;;;;;;5035568;28;20104;-78
2023/06/16 02:28:29;;;;;;;6.93;5.00;;;;;;;;;;5034500;28;20041;-77
2023/06/16 02:30:56;;;;;;;9.15;4.63;;;;;;;;;;5033782;28;20045;-78
2023/06/16 02:33:23;;;;;;;11.73;5.30;;;;;;;;;;5034545;28;20576;-78
2023/06/16 02:35:50;;;;;;;9.40;5.13;;;;;;;;;;5039164;28;20046;-78
2023/06/16 02:38:16;;;;;;;9.05;5.18;;;;;;;;;;5044897;28;20045;-78
2023/06/16 02:40:43;;;;;;;8.65;4.90;;;;;;;;;;5042962;28;20045;-78
2023/06/16 02:43:11;;;;;;;9.70;5.13;;;;;;;;;;5034595;28;20053;-77
2023/06/16 02:45:37;;;;;;;10.90;5.03;;;;;;;;;;5033042;28;20084;-78
2023/06/16 02:48:04;;;;;;;9.60;4.78;;;;;;;;;;5031270;28;20055;-78
2023/06/16 02:50:31;;;;;;;22.08;5.40;;;;;;;;;;5029391;28;20456;-78
2023/06/16 02:53:02;;;;;;;10.80;5.20;;;;;;;;;;5068976;28;20091;-78
2023/06/16 02:55:28;;;;;;;10.00;4.82;;;;;;;;;;5063811;28;20125;-77
2023/06/16 02:57:56;;;;;;;9.75;4.90;;;;;;;;;;5031687;28;20041;-78
2023/06/16 03:00:23;;;;;;;8.75;5.15;;;;;;;;;;5030458;28;20072;-78
2023/06/16 03:03:20;;;;;;;9.10;4.78;;;;;;;;;;5017523;28;20562;-78
2023/06/16 03:05:57;;;;;;;11.27;5.05;;;;;;;;;;5017072;28;20045;-78
2023/06/16 03:08:25;;;;;;;13.35;5.70;;;;;;;;;;5035129;28;20088;-78
2023/06/16 03:10:52;;;;;;;15.32;5.18;;;;;;;;;;5035268;28;20110;-78
2023/06/16 03:13:24;;;;;;;11.20;4.97;;;;;;;;;;5019918;28;20042;-78
2023/06/16 03:15:52;;;;;;;8.57;4.80;;;;;;;;;;5036678;28;20042;-78
2023/06/16 03:18:21;;;;;;;11.40;5.28;;;;;;;;;;5034864;28;20056;-78
2023/06/16 03:20:48;;;;;;;9.90;5.13;;;;;;;;;;5014531;28;20053;-78
2023/06/16 03:23:23;;;;;;;16.10;5.53;;;;;;;;;;5034356;28;20045;-78
2023/06/16 03:25:49;;;;;;;8.70;5.30;;;;;;;;;;5032842;28;20716;-76
2023/06/16 03:28:20;;;;;;;10.57;5.15;;;;;;;;;;5030464;28;20083;-78
2023/06/16 03:30:48;;;;;;;10.30;5.20;;;;;;;;;;5033475;28;20559;-78
2023/06/16 03:33:21;;;;;;;10.25;5.07;;;;;;;;;;5035658;28;20041;-78
2023/06/16 03:35:49;;;;;;;17.23;5.22;;;;;;;;;;5032166;28;20134;-76
2023/06/16 03:38:26;;;;;;;13.68;5.40;;;;;;;;;;5033161;28;20064;-78
2023/06/16 03:40:52;;;;;;;9.00;5.22;;;;;;;;;;5030882;28;20496;-78
2023/06/16 03:43:20;;;;;;;7.72;4.90;;;;;;;;;;5034099;28;20050;-78
2023/06/16 03:45:46;;;;;;;10.23;5.13;;;;;;;;;;5034096;28;20144;-78
2023/06/16 03:48:13;;;;;;;12.68;5.07;;;;;;;;;;5033116;28;20046;-78
2023/06/16 03:50:46;;;;;;;12.18;5.20;;;;;;;;;;5029443;28;20049;-78
2023/06/16 03:53:12;;;;;;;12.25;5.10;;;;;;;;;;5035809;28;20046;-78
2023/06/16 03:55:43;;;;;;;9.93;5.40;;;;;;;;;;5031023;28;20052;-78
2023/06/16 03:58:10;;;;;;;14.50;5.43;;;;;;;;;;5032238;28;20545;-77
2023/06/16 04:00:37;;;;;;;13.43;5.32;;;;;;;;;;5029866;28;20033;-78
2023/06/16 04:03:04;;;;;;;11.02;4.97;;;;;;;;;;5032453;28;20045;-78
2023/06/16 04:05:32;;;;;;;17.55;5.80;;;;;;;;;;5032017;28;20370;-78
2023/06/16 04:08:01;;;;;;;12.10;5.10;;;;;;;;;;5030512;28;20049;-77
2023/06/16 04:10:27;;;;;;;9.05;5.18;;;;;;;;;;5025984;28;20056;-77
2023/06/16 04:12:54;;;;;;;10.90;5.95;;;;;;;;;;5031432;28;20038;-77
2023/06/16 04:15:22;;;;;;;11.18;5.43;;;;;;;;;;5039721;28;20100;-77
2023/06/16 04:17:50;;;;;;;11.70;5.43;;;;;;;;;;5036435;28;20355;-77
2023/06/16 04:20:17;;;;;;;19.05;5.32;;;;;;;;;;5030609;28;20061;-79
2023/06/16 04:22:44;;;;;;;15.85;5.35;;;;;;;;;;5027007;28;20045;-77
2023/06/16 04:25:12;;;;;;;8.88;4.85;;;;;;;;;;5026470;28;20049;-77
2023/06/16 04:27:43;;;;;;;12.85;5.60;;;;;;;;;;5027043;28;20135;-77
2023/06/16 04:30:11;;;;;;;13.27;5.50;;;;;;;;;;5027142;28;20655;-77
2023/06/16 04:32:40;;;;;;;12.07;6.13;;;;;;;;;;5019153;28;20054;-78
2023/06/16 04:35:11;;;;;;;11.65;5.22;;;;;;;;;;5049361;28;20102;-79
2023/06/16 04:37:38;;;;;;;7.80;5.10;;;;;;;;;;5037225;28;20060;-79
2023/06/16 04:40:08;;;;;;;10.13;5.78;;;;;;;;;;5034829;28;20041;-78
2023/06/16 04:42:34;;;;;;;9.15;5.78;;;;;;;;;;5035320;28;20038;-79
2023/06/16 04:45:01;;;;;;;10.98;6.20;;;;;;;;;;5037988;28;20052;-78
2023/06/16 04:47:34;;;;;;;11.68;6.30;;;;;;;;;;5036788;28;20053;-80
2023/06/16 04:50:01;;;;;;;14.25;6.88;;;;;;;;;;5033389;28;20055;-79
2023/06/16 04:52:30;;;;;;;11.55;6.32;;;;;;;;;;5038024;28;20045;-79
2023/06/16 04:55:00;;;;;;;12.52;6.63;;;;;;;;;;5054402;28;20071;-79
2023/06/16 04:57:27;;;;;;;22.67;7.45;;;;;;;;;;5037794;28;20046;-79
2023/06/16 04:59:55;;;;;;;12.32;6.93;;;;;;;;;;5037859;28;20109;-79
2023/06/16 05:02:22;;;;;;;15.77;7.07;;;;;;;;;;5037022;28;20061;-78
2023/06/16 05:05:00;;;;;;;13.30;7.68;;;;;;;;;;5051280;28;20562;-79
2023/06/16 05:07:27;;;;;;;13.25;7.13;;;;;;;;;;5034079;28;20064;-80
2023/06/16 05:09:57;;;;;;;14.95;7.47;;;;;;;;;;5035308;28;20077;-81
2023/06/16 05:12:27;;;;;;;17.35;7.97;;;;;;;;;;5035097;28;20498;-79
2023/06/16 05:14:54;;;;;;;12.27;7.47;;;;;;;;;;5034764;28;20076;-83
2023/06/16 05:17:22;;;;;;;14.88;7.18;;;;;;;;;;5032402;28;20050;-81
2023/06/16 05:19:49;;;;;;;13.60;6.93;;;;;;;;;;5029664;28;20045;-81
2023/06/16 05:22:18;;;;;;;10.90;6.68;;;;;;;;;;5028616;28;20497;-81
2023/06/16 05:24:45;;;;;;;14.75;7.10;;;;;;;;;;5028817;28;20053;-80
2023/06/16 05:27:11;;;;;;;15.18;7.18;;;;;;;;;;5012203;28;20132;-82
2023/06/16 05:29:38;;;;;;;13.65;6.18;;;;;;;;;;5029991;28;20627;-82
2023/06/16 05:32:05;;;;;;;14.57;6.78;;;;;;;;;;5032314;28;20053;-81
2023/06/16 05:34:32;;;;;;;13.00;6.68;;;;;;;;;;5031840;28;20052;-82
2023/06/16 05:37:00;;;;;;;11.05;6.53;;;;;;;;;;5028986;28;20124;-81
2023/06/16 05:39:27;;;;;;;9.32;6.35;;;;;;;;;;5011969;28;20049;-81
2023/06/16 05:41:53;;;;;;;11.90;6.28;;;;;;;;;;5011628;28;20149;-80
2023/06/16 05:44:20;;;;;;;14.15;6.70;;;;;;;;;;5025880;28;20041;-81
2023/06/16 05:46:50;;;;;;;11.35;6.55;;;;;;;;;;5029452;28;20116;-81
2023/06/16 05:49:18;;;;;;;15.70;6.47;;;;;;;;;;5028416;28;20509;-80
2023/06/16 05:52:16;;;;;;;19.70;6.45;;;;;;;;;;5053700;28;20036;-83
2023/06/16 05:54:47;;;;;;;13.80;6.50;;;;;;;;;;5040629;28;20069;-83
2023/06/16 05:58:04;;;;;;;14.20;6.47;;;;;;;;;;5033478;28;20041;-81
2023/06/16 06:00:56;;;;;;;11.18;6.47;;;;;;;;;;5031841;28;20100;-81
2023/06/16 06:04:12;;;;;;;13.48;6.50;;;;;;;;;;5030176;28;20056;-81
2023/06/16 06:07:04;;;;;;;10.75;6.13;;;;;;;;;;5029975;28;20048;-81
2023/06/16 06:10:20;;;;;;;12.43;6.10;;;;;;;;;;5032624;28;20059;-81
2023/06/16 06:13:18;;;;;;;12.93;5.97;;;;;;;;;;5014271;28;20052;-80
2023/06/16 06:16:11;;;;;;;15.00;6.30;;;;;;;;;;5014015;28;20206;-82
2023/06/16 06:18:39;;;;;;;10.57;5.75;;;;;;;;;;5012615;28;20268;-81
2023/06/16 06:21:05;;;;;;;9.98;6.00;;;;;;;;;;5012762;28;20100;-80
2023/06/16 06:23:32;;;;;;;11.57;5.93;;;;;;;;;;5014015;28;20046;-79
2023/06/16 06:25:59;;;;;;;13.38;6.95;;;;;;;;;;5014290;28;20056;-79
2023/06/16 06:28:26;;;;;;;9.43;5.90;;;;;;;;;;5020154;28;20049;-82
2023/06/16 06:30:53;;;;;;;11.05;6.35;;;;;;;;;;5024137;28;20060;-80
2023/06/16 06:33:21;;;;;;;10.95;6.20;;;;;;;;;;5013317;28;20056;-80
2023/06/16 06:35:48;;;;;;;8.82;5.43;;;;;;;;;;5021005;28;20045;-80
2023/06/16 06:38:15;;;;;;;14.25;5.47;;;;;;;;;;5034213;28;20087;-81
2023/06/16 06:40:42;;;;;;;9.20;5.43;;;;;;;;;;5027158;28;20411;-80
2023/06/16 06:43:11;;;;;;;10.93;5.88;;;;;;;;;;5031739;28;20061;-80
2023/06/16 06:45:45;;;;;;;10.43;5.93;;;;;;;;;;5032330;28;20091;-81
2023/06/16 06:48:12;;;;;;;11.38;6.57;;;;;;;;;;5032787;28;20445;-78
2023/06/16 06:50:40;;;;;;;15.05;5.90;;;;;;;;;;5030045;28;20045;-81
2023/06/16 06:53:07;;;;;;;14.57;6.45;;;;;;;;;;5038762;28;20125;-80
2023/06/16 06:55:34;;;;;;;11.02;5.63;;;;;;;;;;5038204;28;20045;-80
2023/06/16 06:58:01;;;;;;;12.30;6.05;;;;;;;;;;5040042;28;20045;-81
2023/06/16 07:00:28;;;;;;;11.35;6.30;;;;;;;;;;5035280;28;20068;-82
2023/06/16 07:02:56;;;;;;;15.23;6.40;;;;;;;;;;5036510;28;20054;-80
2023/06/16 07:05:47;;;;;;;12.00;6.50;;;;;;;;;;5035358;28;20117;-81
2023/06/16 07:09:04;;;;;;;10.13;6.68;;;;;;;;;;5037567;28;20144;-80
2023/06/16 07:12:01;;;;;;;13.20;6.80;;;;;;;;;;5035067;28;20056;-81
2023/06/16 07:15:16;;;;;;;13.65;6.85;;;;;;;;;;5035088;28;20057;-81
2023/06/16 07:18:08;;;;;;;14.05;6.88;;;;;;;;;;5037741;28;20087;-82
2023/06/16 07:21:02;;;;;;;12.05;6.38;;;;;;;;;;5034013;28;20041;-81
2023/06/16 07:23:28;;;;;;;9.98;6.53;;;;;;;;;;5038164;28;20049;-81
2023/06/16 07:26:45;;;;;;;10.05;6.28;;;;;;;;;;5038833;28;20103;-82
2023/06/16 07:29:36;;;;;;;13.75;6.63;;;;;;;;;;5051399;28;20121;-81
2023/06/16 07:32:52;;;;;;;10.80;6.35;;;;;;;;;;5046695;28;20398;-79
2023/06/16 07:36:08;;;;;;;14.80;6.22;;;;;;;;;;5034985;28;20036;-80
2023/06/16 07:39:01;;;;;;;9.68;5.80;;;;;;;;;;5035775;28;20052;-82
2023/06/16 07:42:16;;;;;;;12.57;5.93;;;;;;;;;;5032908;28;20072;-82
2023/06/16 07:45:08;;;;;;;14.00;6.07;;;;;;;;;;5035334;28;20095;-81
2023/06/16 07:47:35;;;;;;;11.48;5.97;;;;;;;;;;5035430;28;20544;-82
2023/06/16 07:50:02;;;;;;;10.55;6.07;;;;;;;;;;5033861;28;20042;-82
2023/06/16 07:52:30;;;;;;;11.20;6.45;;;;;;;;;;5038728;28;20080;-82
2023/06/16 07:55:03;;;;;;;15.77;6.38;;;;;;;;;;5039032;28;20049;-82
2023/06/16 07:57:57;;;;;;;13.85;6.13;;;;;;;;;;5039596;28;20441;-81
2023/06/16 08:01:12;;;;;;;12.55;5.28;;;;;;;;;;5040828;28;20040;-81
2023/06/16 08:04:31;;;;;;;11.02;5.40;;;;;;;;;;5040239;28;20048;-81
2023/06/16 08:07:47;;;;;;;11.38;5.68;;;;;;;;;;5041181;28;20156;-80
2023/06/16 08:10:39;;;;;;;12.32;5.22;;;;;;;;;;5042923;28;20076;-79
2023/06/16 08:13:55;;;;;;;10.82;5.63;;;;;;;;;;5040388;28;20095;-80
2023/06/16 08:17:10;;;;;;;10.13;4.95;;;;;;;;;;5037742;28;20679;-78
2023/06/16 08:20:06;;;;;;;8.70;5.47;;;;;;;;;;5034039;28;20072;-81
2023/06/16 08:22:39;;;;;;;8.82;4.88;;;;;;;;;;5036374;28;20045;-80
2023/06/16 08:25:33;;;;;;;12.70;4.68;;;;;;;;;;5037089;28;20097;-81
2023/06/16 08:28:24;;;;;;;8.45;4.50;;;;;;;;;;5039239;28;20056;-79
2023/06/16 08:31:40;;;;;;;9.18;4.80;;;;;;;;;;5039888;28;20044;-80
2023/06/16 08:34:55;;;;;;;9.63;4.55;;;;;;;;;;5039142;28;20044;-80
2023/06/16 08:37:50;;;;;;;9.90;4.20;;;;;;;;;;5041841;28;20150;-81
2023/06/16 08:40:43;;;;;;;7.38;4.47;;;;;;;;;;5035513;28;20064;-79
2023/06/16 08:43:58;;;;;;;7.57;3.67;;;;;;;;;;5039154;28;20118;-80
2023/06/16 08:46:26;;;;;;;10.85;4.80;;;;;;;;;;5040160;28;20048;-81
2023/06/16 08:48:53;;;;;;;7.38;4.22;;;;;;;;;;5039960;28;20049;-80
2023/06/16 08:51:21;;;;;;;9.80;4.20;;;;;;;;;;5036640;28;20402;-79
2023/06/16 08:53:49;;;;;;;7.63;4.25;;;;;;;;;;5038009;28;20111;-81
2023/06/16 08:56:17;;;;;;;6.70;4.00;;;;;;;;;;5038590;28;20076;-79
2023/06/16 08:58:46;;;;;;;9.90;4.25;;;;;;;;;;5040961;28;20049;-80
2023/06/16 09:01:14;;;;;;;10.35;4.35;;;;;;;;;;5040038;28;20387;-79
2023/06/16 09:03:42;;;;;;;11.93;4.28;;;;;;;;;;5045774;28;20064;-80
2023/06/16 09:09:09;;;;;;;9.48;4.53;;;;;;;;;;5051638;28;20041;-80
2023/06/16 09:12:24;;;;;;;7.45;3.97;;;;;;;;;;5034587;28;20101;-80
2023/06/16 09:15:22;;;;;;;13.85;4.97;;;;;;;;;;5037532;28;20358;-79
2023/06/16 09:18:44;;;;;;;9.25;4.57;;;;;;;;;;5037525;28;20064;-79
2023/06/16 09:21:20;;;;;;;8.43;4.65;;;;;;;;;;5035843;28;20059;-78
2023/06/16 09:24:38;;;;;;;12.80;4.65;;;;;;;;;;5033994;28;20041;-81
2023/06/16 09:27:55;;;;;;;13.65;5.10;;;;;;;;;;5036738;28;20056;-79
2023/06/16 09:31:12;;;;;;;15.07;4.43;;;;;;;;;;5036980;28;20060;-80
2023/06/16 09:34:07;;;;;;;9.30;4.60;;;;;;;;;;5037232;28;20405;-79
2023/06/16 09:37:23;;;;;;;7.97;4.68;;;;;;;;;;5038600;28;20048;-80
2023/06/16 09:40:04;;;;;;;7.72;5.38;;;;;;;;;;5036805;28;20046;-80
2023/06/16 09:43:20;;;;;;;12.15;5.07;;;;;;;;;;5037720;28;20477;-82
2023/06/16 09:46:12;;;;;;;8.35;4.55;;;;;;;;;;5037217;28;20571;-79
2023/06/16 09:49:28;;;;;;;8.93;5.05;;;;;;;;;;5038105;28;20091;-81
2023/06/16 09:52:44;;;;;;;8.20;4.97;;;;;;;;;;5042356;28;20041;-80
2023/06/16 09:55:20;;;;;;;8.80;5.25;;;;;;;;;;5031771;28;20053;-81
2023/06/16 09:57:56;;;;;;;14.77;5.43;;;;;;;;;;5024422;28;20055;-80
2023/06/16 10:00:25;;;;;;;7.97;4.85;;;;;;;;;;5034309;28;20526;-80
2023/06/16 10:03:30;;;;;;;10.43;5.15;;;;;;;;;;5036588;28;20469;-81
2023/06/16 10:06:28;;;;;;;9.95;5.75;;;;;;;;;;5031625;28;20054;-81
2023/06/16 10:09:47;;;;;;;12.10;5.47;;;;;;;;;;5033647;28;20159;-81
2023/06/16 10:13:06;;;;;;;8.77;5.15;;;;;;;;;;5022822;22;20196;-80
2023/06/16 10:16:05;;;;;;;11.15;5.80;;;;;;;;;;5039659;28;20115;-80
2023/06/16 10:19:21;;;;;;;11.63;5.22;;;;;;;;;;5034350;28;20044;-81
2023/06/16 10:22:14;;;;;;;14.75;6.00;;;;;;;;;;5035092;28;20110;-81
2023/06/16 10:25:30;;;;;;;9.00;5.38;;;;;;;;;;5030488;28;20127;-83
2023/06/16 10:28:22;;;;;;;11.15;6.00;;;;;;;;;;5041541;28;20254;-81
2023/06/16 10:31:39;;;;;;;11.70;6.40;;;;;;;;;;5037190;28;20523;-84
2023/06/16 10:34:56;;;;;;;10.70;6.70;;;;;;;;;;5036868;28;20532;-82
2023/06/16 10:37:52;;;;;;;15.07;7.63;;;;;;;;;;5035489;28;20440;-82
2023/06/16 10:41:11;;;;;;;10.82;7.40;;;;;;;;;;5036322;28;20117;-81
2023/06/16 10:44:29;;;;;;;11.25;7.50;;;;;;;;;;5036308;28;20076;-80
2023/06/16 10:47:54;;;;;;;13.63;8.45;;;;;;;;;;5036558;28;20040;-81
2023/06/16 10:51:09;;;;;;;12.77;8.23;;;;;;;;;;5036162;28;20178;-80
2023/06/16 10:54:06;;;;;;;22.13;7.18;;;;;;;;;;5036387;28;20506;-83
2023/06/16 10:56:53;;;;;;;15.77;6.68;;;;;;;;;;5037244;28;20069;-82
2023/06/16 11:00:12;;;;;;;13.80;6.38;;;;;;;;;;5036784;28;20529;-81
2023/06/16 11:03:05;;;;;;;9.68;5.75;;;;;;;;;;5036408;28;20056;-81
2023/06/16 11:05:36;;;;;;;9.30;5.32;;;;;;;;;;5033425;28;20045;-80
2023/06/16 11:08:05;;;;;;;8.43;4.70;;;;;;;;;;5034603;28;20091;-81
2023/06/16 11:10:49;;;;;;;10.02;4.88;;;;;;;;;;5030143;28;20099;-81
2023/06/16 11:13:16;;;;;;;8.57;5.00;;;;;;;;;;5031213;28;20552;-81
2023/06/16 11:15:43;;;;;;;8.02;4.32;;;;;;;;;;5032006;28;20052;-80
2023/06/16 11:18:25;;;;;;;7.90;4.35;;;;;;;;;;5034135;28;20091;-81
2023/06/16 11:21:42;;;;;;;5.57;3.65;;;;;;;;;;5031952;28;20060;-81
2023/06/16 11:24:12;;;;;;;8.90;3.80;;;;;;;;;;5033627;28;20045;-80
2023/06/16 11:26:39;;;;;;;6.03;3.30;;;;;;;;;;5031419;28;20045;-81
2023/06/16 11:29:07;;;;;;;8.75;3.55;;;;;;;;;;5035863;28;20488;-80
2023/06/16 11:31:37;;;;;;;7.80;3.60;;;;;;;;;;5018136;28;20650;-81
2023/06/16 11:34:04;;;;;;;4.05;2.75;;;;;;;;;;5038445;28;20045;-80
2023/06/16 11:36:35;;;;;;;4.00;3.03;;;;;;;;;;5036218;28;20053;-81
2023/06/16 11:39:04;;;;;;;5.78;3.40;;;;;;;;;;5035919;28;20077;-80
2023/06/16 11:41:31;;;;;;;6.13;3.38;;;;;;;;;;5033996;28;20208;-78
2023/06/16 11:43:58;;;;;;;4.55;3.03;;;;;;;;;;5037103;28;20144;-81
2023/06/16 11:46:26;;;;;;;6.38;3.10;;;;;;;;;;5001256;28;20057;-80
2023/06/16 11:48:53;;;;;;;3.90;2.92;;;;;;;;;;5017845;28;20057;-78
2023/06/16 11:51:22;;;;;;;6.40;2.75;;;;;;;;;;5017535;28;20081;-82
2023/06/16 11:53:50;;;;;;;3.15;2.50;;;;;;;;;;5022291;28;20549;-79
2023/06/16 11:57:06;;;;;;;5.88;2.63;;;;;;;;;;5037676;28;20044;-80
2023/06/16 12:00:21;;;;;;;3.10;2.08;;;;;;;;;;5026872;28;20123;-81
2023/06/16 12:03:14;;;;;;;1.90;1.60;;;;;;;;;;5016933;28;20069;-80
2023/06/16 12:06:30;;;;;;;3.25;1.40;;;;;;;;;;5010587;28;20044;-81
2023/06/16 12:09:22;;;;;;;2.42;1.80;;;;;;;;;;5037143;28;20052;-80
2023/06/16 12:12:44;;;;;;;4.50;2.70;;;;;;;;;;5018329;28;20052;-79
2023/06/16 12:15:41;;;;;;;5.82;3.65;;;;;;;;;;5024998;28;20045;-79
2023/06/16 12:18:32;;;;;;;8.45;3.47;;;;;;;;;;5016006;28;20049;-81
2023/06/16 12:21:51;;;;;;;6.50;3.78;;;;;;;;;;5026999;28;20083;-79
2023/06/16 12:24:18;;;;;;;6.85;3.33;;;;;;;;;;5030946;28;20049;-80
2023/06/16 12:26:46;;;;;;;7.07;3.65;;;;;;;;;;5019407;28;20263;-80
2023/06/16 12:29:14;;;;;;;7.55;3.95;;;;;;;;;;5026143;28;20100;-81
2023/06/16 12:31:51;;;;;;;7.35;4.05;;;;;;;;;;5022041;28;20045;-80
2023/06/16 12:34:21;;;;;;;8.55;4.20;;;;;;;;;;5033110;28;20045;-81
2023/06/16 12:36:49;;;;;;;7.07;3.95;;;;;;;;;;5032885;28;20060;-79
2023/06/16 12:39:17;;;;;;;9.73;4.32;;;;;;;;;;5032522;28;20109;-80
2023/06/16 12:42:03;;;;;;;7.13;4.43;;;;;;;;;;5034124;28;20053;-82
2023/06/16 12:44:29;;;;;;;;;;;;;;;;;;5017656;28;20133;-82
2023/06/16 12:46:57;;;;;;;7.88;5.03;;;;;;;;;;5028236;28;20523;-81
2023/06/16 12:49:23;;;;;;;7.95;4.40;;;;;;;;;;5023213;28;20081;-81
2023/06/16 12:51:50;;;;;;;8.02;4.65;;;;;;;;;;5029736;28;20491;-79
2023/06/16 12:54:17;;;;;;;11.23;4.97;;;;;;;;;;5035507;28;20037;-81
2023/06/16 12:56:45;;;;;;;9.05;5.43;;;;;;;;;;5027249;28;20033;-80
2023/06/16 13:00:00;;;;;;;9.43;6.20;;;;;;;;;;5027964;28;20044;-79
2023/06/16 13:02:52;;;;;;;10.15;6.30;;;;;;;;;;5029328;28;20070;-80
2023/06/16 13:06:07;;;;;;;11.80;6.95;;;;;;;;;;5029666;28;20167;-81
2023/06/16 13:08:59;;;;;;;8.85;6.70;;;;;;;;;;5015276;28;20076;-80
2023/06/16 13:12:16;;;;;;;11.70;6.90;;;;;;;;;;5029961;28;20045;-81
2023/06/16 13:15:11;;;;;;;16.38;7.28;;;;;;;;;;5005073;28;20101;-80
2023/06/16 13:17:38;;;;;;;8.73;6.20;;;;;;;;;;5018545;28;20125;-81
2023/06/16 13:20:05;;;;;;;9.77;5.95;;;;;;;;;;5014705;28;20041;-81
2023/06/16 13:22:31;;;;;;;7.75;5.75;;;;;;;;;;5034905;28;20085;-80
2023/06/16 13:25:02;;;;;;;11.93;5.82;;;;;;;;;;5030845;28;20046;-81
2023/06/16 13:27:29;;;;;;;7.68;5.60;;;;;;;;;;5018772;28;20074;-80
2023/06/16 13:29:56;;;;;;;10.93;5.70;;;;;;;;;;5029003;28;20420;-80
2023/06/16 13:32:24;;;;;;;7.30;5.43;;;;;;;;;;5020422;28;20060;-81
2023/06/16 13:34:52;;;;;;;8.95;6.03;;;;;;;;;;5037447;28;20037;-81
2023/06/16 13:37:18;;;;;;;8.20;5.57;;;;;;;;;;5026900;28;20065;-82
2023/06/16 13:39:45;;;;;;;6.97;5.20;;;;;;;;;;5017595;28;20734;-82
2023/06/16 13:42:12;;;;;;;9.15;4.80;;;;;;;;;;5035310;28;20045;-81
2023/06/16 13:44:38;;;;;;;9.32;5.57;;;;;;;;;;5039403;28;20145;-79
2023/06/16 13:47:15;;;;;;;7.85;4.85;;;;;;;;;;5055447;28;20585;-81
2023/06/16 13:50:12;;;;;;;6.82;5.00;;;;;;;;;;5033505;28;20048;-80
2023/06/16 13:53:07;;;;;;;9.55;5.53;;;;;;;;;;5034828;28;20039;-82
2023/06/16 13:55:34;;;;;;;10.20;5.28;;;;;;;;;;5035733;28;20494;-81
2023/06/16 13:58:49;;;;;;;8.13;4.85;;;;;;;;;;5012303;28;20084;-81
2023/06/16 14:01:40;;;;;;;7.70;4.50;;;;;;;;;;5021660;28;20043;-82
2023/06/16 14:04:55;;;;;;;8.80;4.95;;;;;;;;;;5015904;28;20060;-80
2023/06/16 14:08:10;;;;;;;6.63;4.35;;;;;;;;;;5033163;28;20389;-80
2023/06/16 14:11:25;;;;;;;6.85;4.45;;;;;;;;;;5024994;28;20056;-81
2023/06/16 14:14:40;;;;;;;6.35;4.32;;;;;;;;;;5013305;28;20335;-81
2023/06/16 14:17:07;;;;;;;8.15;4.30;;;;;;;;;;5028507;28;20072;-82
2023/06/16 14:19:34;;;;;;;7.10;4.45;;;;;;;;;;5033281;28;20072;-82
2023/06/16 14:22:02;;;;;;;10.73;4.00;;;;;;;;;;5031037;28;20055;-82
2023/06/16 14:24:29;;;;;;;6.47;4.13;;;;;;;;;;5033453;28;20067;-82
2023/06/16 14:26:56;;;;;;;7.95;4.35;;;;;;;;;;5034067;28;20788;-82
2023/06/16 14:29:22;;;;;;;8.45;4.30;;;;;;;;;;5035090;28;20041;-82
2023/06/16 14:31:49;;;;;;;8.60;4.53;;;;;;;;;;5032873;28;22140;-82
2023/06/16 14:34:15;;;;;;;7.40;4.28;;;;;;;;;;5032623;28;20079;-82
2023/06/16 14:36:42;;;;;;;8.63;4.40;;;;;;;;;;5031156;28;20299;-81
2023/06/16 14:39:12;;;;;;;8.48;4.07;;;;;;;;;;5032076;28;20064;-81
2023/06/16 14:41:39;;;;;;;8.07;4.05;;;;;;;;;;5031116;28;20073;-82
2023/06/16 14:44:06;;;;;;;6.00;3.63;;;;;;;;;;5030337;28;20045;-80
2023/06/16 14:47:02;;;;;;;7.60;4.32;;;;;;;;;;5030256;28;20049;-82
2023/06/16 14:49:29;;;;;;;10.80;4.57;;;;;;;;;;5033754;28;20049;-81
2023/06/16 14:52:44;;;;;;;9.30;4.50;;;;;;;;;;5027668;28;20041;-80
2023/06/16 14:55:59;;;;;;;7.68;4.70;;;;;;;;;;5030525;28;20083;-81
2023/06/16 14:58:51;;;;;;;7.68;4.60;;;;;;;;;;5014893;28;20130;-80
2023/06/16 15:01:24;;;;;;;10.68;4.50;;;;;;;;;;5016276;28;20045;-80
2023/06/16 15:04:16;;;;;;;7.65;4.40;;;;;;;;;;5021512;28;20053;-81
2023/06/16 15:07:32;;;;;;;7.50;5.00;;;;;;;;;;5021794;28;20141;-83
2023/06/16 15:10:04;;;;;;;7.30;4.32;;;;;;;;;;5009287;28;20058;-82
2023/06/16 15:13:19;;;;;;;6.43;4.70;;;;;;;;;;5023012;28;20112;-82
2023/06/16 15:16:36;;;;;;;7.00;4.50;;;;;;;;;;5040079;28;20120;-81
2023/06/16 15:19:51;;;;;;;6.18;3.83;;;;;;;;;;5039591;28;20039;-81
2023/06/16 15:22:25;;;;;;;4.80;3.35;;;;;;;;;;5039733;28;20371;-82
2023/06/16 15:25:40;;;;;;;5.13;3.30;;;;;;;;;;5034901;28;20048;-81
2023/06/16 15:28:32;;;;;;;6.75;3.35;;;;;;;;;;5026218;28;20052;-80
2023/06/16 15:31:50;;;;;;;8.77;3.20;;;;;;;;;;5034778;28;20560;-80
2023/06/16 15:34:41;;;;;;;5.03;3.20;;;;;;;;;;5039420;28;20048;-82
2023/06/16 15:37:57;;;;;;;5.75;3.05;;;;;;;;;;5041648;28;20048;-82
2023/06/16 15:40:52;;;;;;;5.22;3.08;;;;;;;;;;5034477;28;20280;-81
2023/06/16 15:43:19;;;;;;;6.03;3.17;;;;;;;;;;5036750;28;20053;-80
2023/06/16 15:45:46;;;;;;;5.45;3.30;;;;;;;;;;5046125;28;20053;-81
2023/06/16 15:48:13;;;;;;;6.80;2.83;;;;;;;;;;5040320;28;20505;-79
2023/06/16 15:50:39;;;;;;;5.00;2.90;;;;;;;;;;5041687;28;20060;-81
2023/06/16 15:53:06;;;;;;;5.82;3.17;;;;;;;;;;5035582;28;20056;-80
2023/06/16 15:55:39;;;;;;;8.93;3.13;;;;;;;;;;5036356;28;20560;-82